Portada
METAR-TAF:

METAR-TAF

Aeroports :

Beirut, Líban

latitud: 33-49N, longitud: 035-29E, altitud: 29 m

Observació

L'informe es va fer fa 1 hora i 24 minuts, a les 14:00 UTC
Vent 5 kt del Oest/Sud-Oest
Temperatura 30°C
Humitat 70%
Pressió 1007 hPa
Visibilitat: 8000 m
Núvols disperses a una alçada de 2600 ft

METAR: OLBA 161400Z 25005KT 8000 SCT026 30/24 Q1007 NOSIG

Hora: 18:24 (15:24 UTC)

Pronòstic

L'informe es va fer fa 5 hores i 24 minuts, a les 10:00 UTC
Pronòstic vàlid del 16 a les 12 UTC al 17 a les 18 UTC
Vent 10 kt del Sud-Oest
Visibilitat: 8000 m
Núvols disperses a una alçada de 2600 ft
Evolucionant progressivament
l' 16 a les 21 UTC al 16 a les 23 UTC
Vent 3 kt amb direcció variable
Evolucionant progressivament
l' 17 a les 06 UTC al 17 a les 08 UTC
Vent 12 kt del Sud-Oest

TAF: OLBA 161000Z 1612/1718 23010KT 8000 SCT026 BECMG 1621/1623 VRB03KT BECMG 1706/1708 23012KT

Observacions i pronòstics meteorològics de més de 4000 aeroports (METAR i TAF).

Les estacions disponibles són els punts grocs i vermells al mapa.

Posi el ratolí al punt desitjat per veure el nom de l'estació.

Feu clic per veure les observacions i els pronòstics meteorològics.

Per canviar el mapa: feu clic els botons verds amb una creu de color negre per apropar; al botó verd amb un guió per allunyar la imatge; o en les fletxes verdes per a mapes adjacents.


METAR-TAF: